sensor_id;sensor_type;location;lat;lon;timestamp;temperature;humidity
7077;DHT22;3579;48.956;9.154;2022-11-20T00:00:04;17.80;62.10
7077;DHT22;3579;48.956;9.154;2022-11-20T00:02:31;17.80;62.10
7077;DHT22;3579;48.956;9.154;2022-11-20T00:04:57;17.80;62.80
7077;DHT22;3579;48.956;9.154;2022-11-20T00:07:23;17.80;62.10
7077;DHT22;3579;48.956;9.154;2022-11-20T00:09:49;17.80;62.10
7077;DHT22;3579;48.956;9.154;2022-11-20T00:12:15;17.80;62.10
7077;DHT22;3579;48.956;9.154;2022-11-20T00:14:41;17.90;62.20
7077;DHT22;3579;48.956;9.154;2022-11-20T00:17:08;17.80;62.10
7077;DHT22;3579;48.956;9.154;2022-11-20T00:19:34;17.80;62.10
7077;DHT22;3579;48.956;9.154;2022-11-20T00:22:00;17.80;62.10
7077;DHT22;3579;48.956;9.154;2022-11-20T00:24:26;17.80;62.10
7077;DHT22;3579;48.956;9.154;2022-11-20T00:26:52;17.80;62.10
7077;DHT22;3579;48.956;9.154;2022-11-20T00:29:18;17.80;62.10
7077;DHT22;3579;48.956;9.154;2022-11-20T00:31:44;17.80;62.10
7077;DHT22;3579;48.956;9.154;2022-11-20T00:34:10;17.80;62.10
7077;DHT22;3579;48.956;9.154;2022-11-20T00:36:36;17.80;62.10
7077;DHT22;3579;48.956;9.154;2022-11-20T00:39:02;17.80;62.10
7077;DHT22;3579;48.956;9.154;2022-11-20T00:41:29;17.80;62.10
7077;DHT22;3579;48.956;9.154;2022-11-20T00:43:56;17.80;62.10
7077;DHT22;3579;48.956;9.154;2022-11-20T00:46:24;17.80;62.10
7077;DHT22;3579;48.956;9.154;2022-11-20T00:48:50;17.80;62.10
7077;DHT22;3579;48.956;9.154;2022-11-20T00:51:22;17.80;62.10
7077;DHT22;3579;48.956;9.154;2022-11-20T00:53:49;17.80;62.10
7077;DHT22;3579;48.956;9.154;2022-11-20T00:56:17;17.80;62.10
7077;DHT22;3579;48.956;9.154;2022-11-20T00:58:45;17.80;62.10
7077;DHT22;3579;48.956;9.154;2022-11-20T01:03:46;17.80;62.10
7077;DHT22;3579;48.956;9.154;2022-11-20T01:06:16;17.80;62.20
7077;DHT22;3579;48.956;9.154;2022-11-20T01:08:43;17.80;62.20
7077;DHT22;3579;48.956;9.154;2022-11-20T01:11:22;17.80;62.20
7077;DHT22;3579;48.956;9.154;2022-11-20T01:13:49;17.80;62.20
7077;DHT22;3579;48.956;9.154;2022-11-20T01:16:19;17.80;62.20
7077;DHT22;3579;48.956;9.154;2022-11-20T01:18:48;17.80;62.20
7077;DHT22;3579;48.956;9.154;2022-11-20T01:21:34;17.80;62.10
7077;DHT22;3579;48.956;9.154;2022-11-20T01:24:01;17.80;62.10
7077;DHT22;3579;48.956;9.154;2022-11-20T01:26:32;17.80;62.20
7077;DHT22;3579;48.956;9.154;2022-11-20T01:28:59;17.80;62.20
7077;DHT22;3579;48.956;9.154;2022-11-20T01:31:29;17.80;62.20
7077;DHT22;3579;48.956;9.154;2022-11-20T01:33:57;17.80;62.10
7077;DHT22;3579;48.956;9.154;2022-11-20T01:36:25;17.80;62.20
7077;DHT22;3579;48.956;9.154;2022-11-20T01:38:57;17.80;62.20
7077;DHT22;3579;48.956;9.154;2022-11-20T01:41:28;17.80;62.20
7077;DHT22;3579;48.956;9.154;2022-11-20T01:44:16;17.80;62.20
7077;DHT22;3579;48.956;9.154;2022-11-20T01:47:00;17.80;62.20
7077;DHT22;3579;48.956;9.154;2022-11-20T01:52:16;17.80;62.10
7077;DHT22;3579;48.956;9.154;2022-11-20T01:57:15;17.80;62.10
7077;DHT22;3579;48.956;9.154;2022-11-20T01:59:57;17.80;62.10
7077;DHT22;3579;48.956;9.154;2022-11-20T02:02:25;17.80;62.10
7077;DHT22;3579;48.956;9.154;2022-11-20T02:04:54;17.80;62.10
7077;DHT22;3579;48.956;9.154;2022-11-20T02:07:23;17.80;62.20
7077;DHT22;3579;48.956;9.154;2022-11-20T02:09:50;17.70;62.10
7077;DHT22;3579;48.956;9.154;2022-11-20T02:12:16;17.80;62.20
7077;DHT22;3579;48.956;9.154;2022-11-20T02:15:01;17.70;62.10
7077;DHT22;3579;48.956;9.154;2022-11-20T02:17:27;17.70;62.10
7077;DHT22;3579;48.956;9.154;2022-11-20T02:19:53;17.80;62.20
7077;DHT22;3579;48.956;9.154;2022-11-20T02:22:33;17.70;62.10
7077;DHT22;3579;48.956;9.154;2022-11-20T02:25:02;17.70;62.00
7077;DHT22;3579;48.956;9.154;2022-11-20T02:27:29;17.80;62.20
7077;DHT22;3579;48.956;9.154;2022-11-20T02:30:00;17.70;62.10
7077;DHT22;3579;48.956;9.154;2022-11-20T02:32:33;17.80;62.20
7077;DHT22;3579;48.956;9.154;2022-11-20T02:37:45;17.70;62.10
7077;DHT22;3579;48.956;9.154;2022-11-20T02:40:13;17.80;62.20
7077;DHT22;3579;48.956;9.154;2022-11-20T02:42:39;17.80;62.20
7077;DHT22;3579;48.956;9.154;2022-11-20T02:45:06;17.70;62.10
7077;DHT22;3579;48.956;9.154;2022-11-20T02:47:33;17.70;62.10
7077;DHT22;3579;48.956;9.154;2022-11-20T02:49:59;17.70;62.10
7077;DHT22;3579;48.956;9.154;2022-11-20T02:52:26;17.70;62.10
7077;DHT22;3579;48.956;9.154;2022-11-20T02:54:52;17.80;62.20
7077;DHT22;3579;48.956;9.154;2022-11-20T02:57:18;17.80;62.20
7077;DHT22;3579;48.956;9.154;2022-11-20T02:59:44;17.70;62.10
7077;DHT22;3579;48.956;9.154;2022-11-20T03:02:10;17.70;62.10
7077;DHT22;3579;48.956;9.154;2022-11-20T03:04:36;17.80;62.10
7077;DHT22;3579;48.956;9.154;2022-11-20T03:07:03;17.70;62.00
7077;DHT22;3579;48.956;9.154;2022-11-20T03:09:29;17.70;62.10
7077;DHT22;3579;48.956;9.154;2022-11-20T03:11:55;17.70;62.10
7077;DHT22;3579;48.956;9.154;2022-11-20T03:14:21;17.80;62.20
7077;DHT22;3579;48.956;9.154;2022-11-20T03:16:47;17.70;62.10
7077;DHT22;3579;48.956;9.154;2022-11-20T03:19:13;17.70;62.10
7077;DHT22;3579;48.956;9.154;2022-11-20T03:21:40;17.70;62.10
7077;DHT22;3579;48.956;9.154;2022-11-20T03:24:06;17.70;62.10
7077;DHT22;3579;48.956;9.154;2022-11-20T03:26:32;17.70;62.00
7077;DHT22;3579;48.956;9.154;2022-11-20T03:29:00;17.80;62.10
7077;DHT22;3579;48.956;9.154;2022-11-20T03:31:29;17.70;62.00
7077;DHT22;3579;48.956;9.154;2022-11-20T03:33:57;17.70;62.00
7077;DHT22;3579;48.956;9.154;2022-11-20T03:36:23;17.70;62.00
7077;DHT22;3579;48.956;9.154;2022-11-20T03:38:50;17.70;62.00
7077;DHT22;3579;48.956;9.154;2022-11-20T03:41:21;17.70;62.00
7077;DHT22;3579;48.956;9.154;2022-11-20T03:44:02;17.80;62.10
7077;DHT22;3579;48.956;9.154;2022-11-20T03:46:29;17.80;62.10
7077;DHT22;3579;48.956;9.154;2022-11-20T03:48:55;17.70;62.00
7077;DHT22;3579;48.956;9.154;2022-11-20T03:51:30;17.80;62.10
7077;DHT22;3579;48.956;9.154;2022-11-20T03:53:58;17.70;62.00
7077;DHT22;3579;48.956;9.154;2022-11-20T03:56:30;17.70;62.00
7077;DHT22;3579;48.956;9.154;2022-11-20T03:58:57;17.70;62.10
7077;DHT22;3579;48.956;9.154;2022-11-20T04:01:26;17.70;62.10
7077;DHT22;3579;48.956;9.154;2022-11-20T04:03:55;17.70;62.10
7077;DHT22;3579;48.956;9.154;2022-11-20T04:06:26;17.70;62.10
7077;DHT22;3579;48.956;9.154;2022-11-20T04:08:57;17.70;62.10
7077;DHT22;3579;48.956;9.154;2022-11-20T04:11:25;17.70;62.10
7077;DHT22;3579;48.956;9.154;2022-11-20T04:13:54;17.70;62.10
7077;DHT22;3579;48.956;9.154;2022-11-20T04:16:21;17.70;62.10
7077;DHT22;3579;48.956;9.154;2022-11-20T04:18:52;17.70;62.00
7077;DHT22;3579;48.956;9.154;2022-11-20T04:21:18;17.70;62.10
7077;DHT22;3579;48.956;9.154;2022-11-20T04:23:44;17.70;62.10
7077;DHT22;3579;48.956;9.154;2022-11-20T04:26:11;17.70;62.10
7077;DHT22;3579;48.956;9.154;2022-11-20T04:28:38;17.70;62.10
7077;DHT22;3579;48.956;9.154;2022-11-20T04:31:26;17.70;62.10
7077;DHT22;3579;48.956;9.154;2022-11-20T04:33:52;17.70;62.00
7077;DHT22;3579;48.956;9.154;2022-11-20T04:36:26;17.70;62.10
7077;DHT22;3579;48.956;9.154;2022-11-20T04:38:59;17.70;62.10
7077;DHT22;3579;48.956;9.154;2022-11-20T04:41:28;17.70;62.80
7077;DHT22;3579;48.956;9.154;2022-11-20T04:44:00;17.70;62.20
7077;DHT22;3579;48.956;9.154;2022-11-20T04:46:30;17.70;62.10
7077;DHT22;3579;48.956;9.154;2022-11-20T04:48:57;17.70;62.10
7077;DHT22;3579;48.956;9.154;2022-11-20T04:51:23;17.70;62.10
7077;DHT22;3579;48.956;9.154;2022-11-20T04:53:49;17.70;62.10
7077;DHT22;3579;48.956;9.154;2022-11-20T04:56:15;17.70;62.10
7077;DHT22;3579;48.956;9.154;2022-11-20T04:58:42;17.70;62.10
7077;DHT22;3579;48.956;9.154;2022-11-20T05:01:13;17.70;62.10
7077;DHT22;3579;48.956;9.154;2022-11-20T05:03:41;17.70;62.10
7077;DHT22;3579;48.956;9.154;2022-11-20T05:06:08;17.70;62.10
7077;DHT22;3579;48.956;9.154;2022-11-20T05:08:35;17.70;62.10
7077;DHT22;3579;48.956;9.154;2022-11-20T05:11:09;17.70;62.10
7077;DHT22;3579;48.956;9.154;2022-11-20T05:13:35;17.70;62.10
7077;DHT22;3579;48.956;9.154;2022-11-20T05:16:07;17.70;62.10
7077;DHT22;3579;48.956;9.154;2022-11-20T05:18:34;17.70;62.10
7077;DHT22;3579;48.956;9.154;2022-11-20T05:21:00;17.70;62.10
7077;DHT22;3579;48.956;9.154;2022-11-20T05:23:28;17.70;62.10
7077;DHT22;3579;48.956;9.154;2022-11-20T05:25:55;17.70;62.10
7077;DHT22;3579;48.956;9.154;2022-11-20T05:28:22;17.70;62.10
7077;DHT22;3579;48.956;9.154;2022-11-20T05:30:48;17.70;62.30
7077;DHT22;3579;48.956;9.154;2022-11-20T05:33:14;17.70;62.00
7077;DHT22;3579;48.956;9.154;2022-11-20T05:35:40;17.70;62.00
7077;DHT22;3579;48.956;9.154;2022-11-20T05:38:07;17.70;62.00
7077;DHT22;3579;48.956;9.154;2022-11-20T05:40:33;17.70;62.00
7077;DHT22;3579;48.956;9.154;2022-11-20T05:42:59;17.70;62.00
7077;DHT22;3579;48.956;9.154;2022-11-20T05:45:25;17.70;62.00
7077;DHT22;3579;48.956;9.154;2022-11-20T05:47:51;17.70;62.00
7077;DHT22;3579;48.956;9.154;2022-11-20T05:50:17;17.70;62.00
7077;DHT22;3579;48.956;9.154;2022-11-20T05:52:44;17.70;62.00
7077;DHT22;3579;48.956;9.154;2022-11-20T05:55:10;17.70;62.00
7077;DHT22;3579;48.956;9.154;2022-11-20T05:57:36;17.70;62.00
7077;DHT22;3579;48.956;9.154;2022-11-20T06:00:03;17.70;62.00
7077;DHT22;3579;48.956;9.154;2022-11-20T06:02:29;17.70;62.00
7077;DHT22;3579;48.956;9.154;2022-11-20T06:04:55;17.70;62.10
7077;DHT22;3579;48.956;9.154;2022-11-20T06:07:21;17.70;62.10
7077;DHT22;3579;48.956;9.154;2022-11-20T06:09:47;17.70;62.10
7077;DHT22;3579;48.956;9.154;2022-11-20T06:12:13;17.70;62.00
7077;DHT22;3579;48.956;9.154;2022-11-20T06:14:39;17.70;62.00
7077;DHT22;3579;48.956;9.154;2022-11-20T06:17:05;17.70;62.00
7077;DHT22;3579;48.956;9.154;2022-11-20T06:19:31;17.70;62.00
7077;DHT22;3579;48.956;9.154;2022-11-20T06:21:57;17.70;62.00
7077;DHT22;3579;48.956;9.154;2022-11-20T06:24:23;17.70;62.60
7077;DHT22;3579;48.956;9.154;2022-11-20T06:26:51;17.70;62.00
7077;DHT22;3579;48.956;9.154;2022-11-20T06:29:17;17.70;62.00
7077;DHT22;3579;48.956;9.154;2022-11-20T06:31:43;17.70;62.00
7077;DHT22;3579;48.956;9.154;2022-11-20T06:34:09;17.70;62.00
7077;DHT22;3579;48.956;9.154;2022-11-20T06:36:35;17.70;62.00
7077;DHT22;3579;48.956;9.154;2022-11-20T06:39:02;17.70;62.00
7077;DHT22;3579;48.956;9.154;2022-11-20T06:41:28;17.70;62.00
7077;DHT22;3579;48.956;9.154;2022-11-20T06:43:54;17.70;62.00
7077;DHT22;3579;48.956;9.154;2022-11-20T06:46:20;17.70;62.00
7077;DHT22;3579;48.956;9.154;2022-11-20T06:48:47;17.70;62.00
7077;DHT22;3579;48.956;9.154;2022-11-20T06:51:14;17.70;62.00
7077;DHT22;3579;48.956;9.154;2022-11-20T06:53:40;17.70;62.00
7077;DHT22;3579;48.956;9.154;2022-11-20T06:56:07;17.70;62.00
7077;DHT22;3579;48.956;9.154;2022-11-20T06:58:34;17.70;62.00
7077;DHT22;3579;48.956;9.154;2022-11-20T07:01:05;17.70;62.00
7077;DHT22;3579;48.956;9.154;2022-11-20T07:03:32;17.70;62.00
7077;DHT22;3579;48.956;9.154;2022-11-20T07:05:58;17.70;62.00
7077;DHT22;3579;48.956;9.154;2022-11-20T07:08:25;17.70;62.00
7077;DHT22;3579;48.956;9.154;2022-11-20T07:10:52;17.70;61.90
7077;DHT22;3579;48.956;9.154;2022-11-20T07:13:18;17.70;62.00
7077;DHT22;3579;48.956;9.154;2022-11-20T07:15:44;17.70;61.90
7077;DHT22;3579;48.956;9.154;2022-11-20T07:18:10;17.70;62.60
7077;DHT22;3579;48.956;9.154;2022-11-20T07:20:36;17.70;61.90
7077;DHT22;3579;48.956;9.154;2022-11-20T07:23:02;17.70;61.90
7077;DHT22;3579;48.956;9.154;2022-11-20T07:25:28;17.70;61.90
7077;DHT22;3579;48.956;9.154;2022-11-20T07:27:59;17.80;62.10
7077;DHT22;3579;48.956;9.154;2022-11-20T07:30:27;17.70;61.90
7077;DHT22;3579;48.956;9.154;2022-11-20T07:32:54;17.70;61.90
7077;DHT22;3579;48.956;9.154;2022-11-20T07:35:20;17.70;61.90
7077;DHT22;3579;48.956;9.154;2022-11-20T07:37:47;17.70;61.90
7077;DHT22;3579;48.956;9.154;2022-11-20T07:40:15;17.70;61.80
7077;DHT22;3579;48.956;9.154;2022-11-20T07:42:52;17.70;61.90
7077;DHT22;3579;48.956;9.154;2022-11-20T07:45:20;17.70;61.80
7077;DHT22;3579;48.956;9.154;2022-11-20T07:47:46;17.70;61.90
7077;DHT22;3579;48.956;9.154;2022-11-20T07:50:12;17.70;61.90
7077;DHT22;3579;48.956;9.154;2022-11-20T07:52:39;17.70;61.90
7077;DHT22;3579;48.956;9.154;2022-11-20T07:55:06;17.80;62.00
7077;DHT22;3579;48.956;9.154;2022-11-20T07:57:33;17.70;61.90
7077;DHT22;3579;48.956;9.154;2022-11-20T07:59:59;17.70;61.90
7077;DHT22;3579;48.956;9.154;2022-11-20T08:02:25;17.70;61.90
7077;DHT22;3579;48.956;9.154;2022-11-20T08:04:51;17.70;61.80
7077;DHT22;3579;48.956;9.154;2022-11-20T08:07:17;17.80;61.90
7077;DHT22;3579;48.956;9.154;2022-11-20T08:09:43;17.70;61.80
7077;DHT22;3579;48.956;9.154;2022-11-20T08:12:17;17.70;61.90
7077;DHT22;3579;48.956;9.154;2022-11-20T08:15:04;17.70;61.80
7077;DHT22;3579;48.956;9.154;2022-11-20T08:17:30;17.80;62.00
7077;DHT22;3579;48.956;9.154;2022-11-20T08:19:56;17.80;61.90
7077;DHT22;3579;48.956;9.154;2022-11-20T08:22:22;17.80;61.80
7077;DHT22;3579;48.956;9.154;2022-11-20T08:24:48;17.80;61.80
7077;DHT22;3579;48.956;9.154;2022-11-20T08:27:15;17.80;61.80
7077;DHT22;3579;48.956;9.154;2022-11-20T08:29:41;17.80;61.80
7077;DHT22;3579;48.956;9.154;2022-11-20T08:32:07;17.80;61.70
7077;DHT22;3579;48.956;9.154;2022-11-20T08:34:33;17.80;61.70
7077;DHT22;3579;48.956;9.154;2022-11-20T08:36:59;17.80;61.70
7077;DHT22;3579;48.956;9.154;2022-11-20T08:39:27;17.80;61.70
7077;DHT22;3579;48.956;9.154;2022-11-20T08:41:53;17.80;61.70
7077;DHT22;3579;48.956;9.154;2022-11-20T08:44:19;17.80;61.70
7077;DHT22;3579;48.956;9.154;2022-11-20T08:46:45;17.90;61.80
7077;DHT22;3579;48.956;9.154;2022-11-20T08:49:13;17.90;61.70
7077;DHT22;3579;48.956;9.154;2022-11-20T08:51:40;17.90;61.70
7077;DHT22;3579;48.956;9.154;2022-11-20T08:54:07;17.90;61.70
7077;DHT22;3579;48.956;9.154;2022-11-20T08:56:33;17.90;61.70
7077;DHT22;3579;48.956;9.154;2022-11-20T08:59:00;17.90;61.60
7077;DHT22;3579;48.956;9.154;2022-11-20T09:01:26;17.90;61.70
7077;DHT22;3579;48.956;9.154;2022-11-20T09:03:52;17.90;61.60
7077;DHT22;3579;48.956;9.154;2022-11-20T09:06:20;17.90;61.70
7077;DHT22;3579;48.956;9.154;2022-11-20T09:08:46;17.90;61.70
7077;DHT22;3579;48.956;9.154;2022-11-20T09:11:12;17.90;61.60
7077;DHT22;3579;48.956;9.154;2022-11-20T09:13:38;17.90;61.60
7077;DHT22;3579;48.956;9.154;2022-11-20T09:16:07;17.90;61.60
7077;DHT22;3579;48.956;9.154;2022-11-20T09:18:34;17.90;61.50
7077;DHT22;3579;48.956;9.154;2022-11-20T09:21:07;17.90;61.50
7077;DHT22;3579;48.956;9.154;2022-11-20T09:23:35;17.90;61.50
7077;DHT22;3579;48.956;9.154;2022-11-20T09:26:06;18.00;61.50
7077;DHT22;3579;48.956;9.154;2022-11-20T09:28:33;18.00;61.50
7077;DHT22;3579;48.956;9.154;2022-11-20T09:30:59;18.00;61.50
7077;DHT22;3579;48.956;9.154;2022-11-20T09:33:26;18.00;61.50
7077;DHT22;3579;48.956;9.154;2022-11-20T09:35:52;18.00;61.50
7077;DHT22;3579;48.956;9.154;2022-11-20T09:38:18;18.00;61.50
7077;DHT22;3579;48.956;9.154;2022-11-20T09:40:50;18.00;61.50
7077;DHT22;3579;48.956;9.154;2022-11-20T09:43:19;18.00;61.50
7077;DHT22;3579;48.956;9.154;2022-11-20T09:46:17;18.00;61.40
7077;DHT22;3579;48.956;9.154;2022-11-20T09:49:09;18.00;61.40
7077;DHT22;3579;48.956;9.154;2022-11-20T09:52:47;18.00;61.40
7077;DHT22;3579;48.956;9.154;2022-11-20T09:54:45;18.00;61.40
7077;DHT22;3579;48.956;9.154;2022-11-20T09:57:18;18.00;61.40
7077;DHT22;3579;48.956;9.154;2022-11-20T09:59:55;18.00;61.40
7077;DHT22;3579;48.956;9.154;2022-11-20T10:02:59;18.00;61.40
7077;DHT22;3579;48.956;9.154;2022-11-20T10:05:28;18.00;61.30
7077;DHT22;3579;48.956;9.154;2022-11-20T10:08:02;18.10;61.40
7077;DHT22;3579;48.956;9.154;2022-11-20T10:18:49;18.10;61.40
7077;DHT22;3579;48.956;9.154;2022-11-20T10:26:45;18.10;61.30
7077;DHT22;3579;48.956;9.154;2022-11-20T10:29:19;18.10;61.20
7077;DHT22;3579;48.956;9.154;2022-11-20T10:31:56;18.10;61.20
7077;DHT22;3579;48.956;9.154;2022-11-20T10:37:27;18.10;61.10
7077;DHT22;3579;48.956;9.154;2022-11-20T10:40:18;18.10;61.20
7077;DHT22;3579;48.956;9.154;2022-11-20T10:42:49;18.10;61.10
7077;DHT22;3579;48.956;9.154;2022-11-20T10:48:15;18.10;61.10
7077;DHT22;3579;48.956;9.154;2022-11-20T10:50:53;18.20;61.10
7077;DHT22;3579;48.956;9.154;2022-11-20T10:53:43;18.20;61.10
7077;DHT22;3579;48.956;9.154;2022-11-20T11:01:30;18.20;61.00
7077;DHT22;3579;48.956;9.154;2022-11-20T11:03:57;18.20;61.00
7077;DHT22;3579;48.956;9.154;2022-11-20T11:11:30;18.30;61.60
7077;DHT22;3579;48.956;9.154;2022-11-20T11:14:07;18.30;60.90
7077;DHT22;3579;48.956;9.154;2022-11-20T11:16:34;18.30;60.80
7077;DHT22;3579;48.956;9.154;2022-11-20T11:19:11;18.30;61.50
7077;DHT22;3579;48.956;9.154;2022-11-20T11:21:38;18.30;60.70
7077;DHT22;3579;48.956;9.154;2022-11-20T11:24:22;18.30;60.70
7077;DHT22;3579;48.956;9.154;2022-11-20T11:27:00;18.30;60.70
7077;DHT22;3579;48.956;9.154;2022-11-20T11:29:32;18.30;60.70
7077;DHT22;3579;48.956;9.154;2022-11-20T11:32:17;18.30;60.70
7077;DHT22;3579;48.956;9.154;2022-11-20T11:34:44;18.40;60.70
7077;DHT22;3579;48.956;9.154;2022-11-20T11:37:17;18.40;60.70
7077;DHT22;3579;48.956;9.154;2022-11-20T11:39:44;18.40;60.60
7077;DHT22;3579;48.956;9.154;2022-11-20T11:42:17;18.40;60.50
7077;DHT22;3579;48.956;9.154;2022-11-20T11:44:46;18.50;60.50
7077;DHT22;3579;48.956;9.154;2022-11-20T11:47:37;18.50;60.50
7077;DHT22;3579;48.956;9.154;2022-11-20T12:00:58;18.60;60.40
7077;DHT22;3579;48.956;9.154;2022-11-20T12:03:36;18.60;60.30
7077;DHT22;3579;48.956;9.154;2022-11-20T12:06:12;18.60;60.30
7077;DHT22;3579;48.956;9.154;2022-11-20T12:09:05;18.60;60.30
7077;DHT22;3579;48.956;9.154;2022-11-20T12:11:49;18.70;60.30
7077;DHT22;3579;48.956;9.154;2022-11-20T12:14:20;18.70;60.30
7077;DHT22;3579;48.956;9.154;2022-11-20T12:16:50;18.70;60.20
7077;DHT22;3579;48.956;9.154;2022-11-20T12:19:18;18.70;60.20
7077;DHT22;3579;48.956;9.154;2022-11-20T12:24:41;18.70;60.10
7077;DHT22;3579;48.956;9.154;2022-11-20T12:30:04;18.70;60.10
7077;DHT22;3579;48.956;9.154;2022-11-20T12:40:55;18.70;60.10
7077;DHT22;3579;48.956;9.154;2022-11-20T12:43:26;18.70;60.10
7077;DHT22;3579;48.956;9.154;2022-11-20T12:49:33;18.70;60.10
7077;DHT22;3579;48.956;9.154;2022-11-20T12:52:16;18.80;60.00
7077;DHT22;3579;48.956;9.154;2022-11-20T12:55:02;18.80;60.00
7077;DHT22;3579;48.956;9.154;2022-11-20T13:00:08;18.80;60.00
7077;DHT22;3579;48.956;9.154;2022-11-20T13:08:29;18.90;60.00
7077;DHT22;3579;48.956;9.154;2022-11-20T13:11:18;18.90;60.00
7077;DHT22;3579;48.956;9.154;2022-11-20T13:14:21;18.90;59.90
7077;DHT22;3579;48.956;9.154;2022-11-20T13:19:35;18.90;59.80
7077;DHT22;3579;48.956;9.154;2022-11-20T13:22:01;18.90;59.80
7077;DHT22;3579;48.956;9.154;2022-11-20T13:24:29;18.90;59.80
7077;DHT22;3579;48.956;9.154;2022-11-20T13:29:35;18.90;59.80
7077;DHT22;3579;48.956;9.154;2022-11-20T13:32:04;18.90;59.80
7077;DHT22;3579;48.956;9.154;2022-11-20T13:34:32;18.90;59.80
7077;DHT22;3579;48.956;9.154;2022-11-20T13:36:59;18.90;59.80
7077;DHT22;3579;48.956;9.154;2022-11-20T13:39:36;18.90;59.80
7077;DHT22;3579;48.956;9.154;2022-11-20T13:42:22;18.90;59.70
7077;DHT22;3579;48.956;9.154;2022-11-20T13:44:54;18.90;59.70
7077;DHT22;3579;48.956;9.154;2022-11-20T13:47:26;18.90;59.70
7077;DHT22;3579;48.956;9.154;2022-11-20T13:49:54;18.90;59.70
7077;DHT22;3579;48.956;9.154;2022-11-20T13:55:12;18.90;59.70
7077;DHT22;3579;48.956;9.154;2022-11-20T14:00:26;18.90;60.20
7077;DHT22;3579;48.956;9.154;2022-11-20T14:05:51;18.90;59.60
7077;DHT22;3579;48.956;9.154;2022-11-20T14:08:27;18.90;59.60
7077;DHT22;3579;48.956;9.154;2022-11-20T14:11:06;18.90;59.60
7077;DHT22;3579;48.956;9.154;2022-11-20T14:13:37;18.90;59.60
7077;DHT22;3579;48.956;9.154;2022-11-20T14:16:03;18.90;59.60
7077;DHT22;3579;48.956;9.154;2022-11-20T14:18:29;19.00;59.70
7077;DHT22;3579;48.956;9.154;2022-11-20T14:20:55;18.90;59.50
7077;DHT22;3579;48.956;9.154;2022-11-20T14:23:27;18.90;59.60
7077;DHT22;3579;48.956;9.154;2022-11-20T14:25:53;19.00;59.60
7077;DHT22;3579;48.956;9.154;2022-11-20T14:28:30;19.00;59.60
7077;DHT22;3579;48.956;9.154;2022-11-20T14:30:57;19.00;59.60
7077;DHT22;3579;48.956;9.154;2022-11-20T14:33:25;19.00;59.60
7077;DHT22;3579;48.956;9.154;2022-11-20T14:35:57;19.00;59.60
7077;DHT22;3579;48.956;9.154;2022-11-20T14:38:27;19.00;59.50
7077;DHT22;3579;48.956;9.154;2022-11-20T14:40:54;19.00;59.50
7077;DHT22;3579;48.956;9.154;2022-11-20T14:43:23;19.00;59.50
7077;DHT22;3579;48.956;9.154;2022-11-20T14:45:57;19.00;59.50
7077;DHT22;3579;48.956;9.154;2022-11-20T14:48:30;19.00;59.50
7077;DHT22;3579;48.956;9.154;2022-11-20T14:50:57;19.00;59.50
7077;DHT22;3579;48.956;9.154;2022-11-20T14:53:24;19.00;59.50
7077;DHT22;3579;48.956;9.154;2022-11-20T14:55:58;18.90;59.40
7077;DHT22;3579;48.956;9.154;2022-11-20T14:58:28;18.90;59.40
7077;DHT22;3579;48.956;9.154;2022-11-20T15:03:22;18.90;59.50
7077;DHT22;3579;48.956;9.154;2022-11-20T15:05:49;18.90;59.50
7077;DHT22;3579;48.956;9.154;2022-11-20T15:08:17;18.90;59.50
7077;DHT22;3579;48.956;9.154;2022-11-20T15:10:50;18.90;59.50
7077;DHT22;3579;48.956;9.154;2022-11-20T15:13:30;18.90;59.40
7077;DHT22;3579;48.956;9.154;2022-11-20T15:15:58;18.90;59.40
7077;DHT22;3579;48.956;9.154;2022-11-20T15:18:38;18.90;59.50
7077;DHT22;3579;48.956;9.154;2022-11-20T15:21:16;18.90;59.50
7077;DHT22;3579;48.956;9.154;2022-11-20T15:23:43;18.90;59.50
7077;DHT22;3579;48.956;9.154;2022-11-20T15:26:11;18.90;59.50
7077;DHT22;3579;48.956;9.154;2022-11-20T15:28:43;18.90;59.50
7077;DHT22;3579;48.956;9.154;2022-11-20T15:31:12;18.90;59.50
7077;DHT22;3579;48.956;9.154;2022-11-20T15:33:39;18.90;59.60
7077;DHT22;3579;48.956;9.154;2022-11-20T15:36:05;18.90;59.50
7077;DHT22;3579;48.956;9.154;2022-11-20T15:38:31;18.90;59.50
7077;DHT22;3579;48.956;9.154;2022-11-20T15:40:57;18.90;59.50
7077;DHT22;3579;48.956;9.154;2022-11-20T15:43:24;18.90;59.50
7077;DHT22;3579;48.956;9.154;2022-11-20T15:45:54;18.90;59.50
7077;DHT22;3579;48.956;9.154;2022-11-20T15:48:27;18.80;59.40
7077;DHT22;3579;48.956;9.154;2022-11-20T15:53:38;18.80;59.40
7077;DHT22;3579;48.956;9.154;2022-11-20T15:56:04;18.80;59.50
7077;DHT22;3579;48.956;9.154;2022-11-20T15:58:31;18.80;59.50
7077;DHT22;3579;48.956;9.154;2022-11-20T16:00:57;18.80;59.50
7077;DHT22;3579;48.956;9.154;2022-11-20T16:03:23;18.80;59.50
7077;DHT22;3579;48.956;9.154;2022-11-20T16:05:49;18.80;59.50
7077;DHT22;3579;48.956;9.154;2022-11-20T16:08:15;18.80;59.50
7077;DHT22;3579;48.956;9.154;2022-11-20T16:10:41;18.80;59.50
7077;DHT22;3579;48.956;9.154;2022-11-20T16:13:15;18.80;59.50
7077;DHT22;3579;48.956;9.154;2022-11-20T16:16:07;18.80;59.50
7077;DHT22;3579;48.956;9.154;2022-11-20T16:18:35;18.80;59.50
7077;DHT22;3579;48.956;9.154;2022-11-20T16:21:01;18.80;59.50
7077;DHT22;3579;48.956;9.154;2022-11-20T16:23:27;18.80;59.50
7077;DHT22;3579;48.956;9.154;2022-11-20T16:25:54;18.80;59.60
7077;DHT22;3579;48.956;9.154;2022-11-20T16:28:20;18.80;59.60
7077;DHT22;3579;48.956;9.154;2022-11-20T16:30:46;18.80;59.60
7077;DHT22;3579;48.956;9.154;2022-11-20T16:33:14;18.80;59.60
7077;DHT22;3579;48.956;9.154;2022-11-20T16:35:41;18.80;59.60
7077;DHT22;3579;48.956;9.154;2022-11-20T16:38:07;18.80;59.60
7077;DHT22;3579;48.956;9.154;2022-11-20T16:40:33;18.80;59.60
7077;DHT22;3579;48.956;9.154;2022-11-20T16:43:09;18.80;59.60
7077;DHT22;3579;48.956;9.154;2022-11-20T16:45:41;18.80;59.60
7077;DHT22;3579;48.956;9.154;2022-11-20T16:48:11;18.70;59.50
7077;DHT22;3579;48.956;9.154;2022-11-20T16:50:44;18.70;59.50
7077;DHT22;3579;48.956;9.154;2022-11-20T16:53:11;18.70;59.50
7077;DHT22;3579;48.956;9.154;2022-11-20T16:55:37;18.70;59.50
7077;DHT22;3579;48.956;9.154;2022-11-20T16:58:04;18.80;59.60
7077;DHT22;3579;48.956;9.154;2022-11-20T17:00:29;18.70;59.50
7077;DHT22;3579;48.956;9.154;2022-11-20T17:02:55;18.70;59.50
7077;DHT22;3579;48.956;9.154;2022-11-20T17:05:21;18.70;59.50
7077;DHT22;3579;48.956;9.154;2022-11-20T17:07:48;18.70;59.50
7077;DHT22;3579;48.956;9.154;2022-11-20T17:10:14;18.70;60.10
7077;DHT22;3579;48.956;9.154;2022-11-20T17:12:40;18.70;59.50
7077;DHT22;3579;48.956;9.154;2022-11-20T17:15:06;18.70;59.50
7077;DHT22;3579;48.956;9.154;2022-11-20T17:17:32;18.70;59.60
7077;DHT22;3579;48.956;9.154;2022-11-20T17:19:58;18.70;59.60
7077;DHT22;3579;48.956;9.154;2022-11-20T17:22:24;18.70;59.60
7077;DHT22;3579;48.956;9.154;2022-11-20T17:24:50;18.70;59.60
7077;DHT22;3579;48.956;9.154;2022-11-20T17:27:16;18.70;59.60
7077;DHT22;3579;48.956;9.154;2022-11-20T17:29:43;18.70;59.60
7077;DHT22;3579;48.956;9.154;2022-11-20T17:32:09;18.70;59.60
7077;DHT22;3579;48.956;9.154;2022-11-20T17:34:36;18.70;59.60
7077;DHT22;3579;48.956;9.154;2022-11-20T17:37:02;18.70;59.60
7077;DHT22;3579;48.956;9.154;2022-11-20T17:39:28;18.70;59.60
7077;DHT22;3579;48.956;9.154;2022-11-20T17:41:54;18.70;59.60
7077;DHT22;3579;48.956;9.154;2022-11-20T17:44:39;18.70;59.60
7077;DHT22;3579;48.956;9.154;2022-11-20T17:47:07;18.60;59.50
7077;DHT22;3579;48.956;9.154;2022-11-20T17:49:33;18.60;59.60
7077;DHT22;3579;48.956;9.154;2022-11-20T17:51:59;18.60;59.60